createdAt,value
2018-12-05T00:00:29.822Z,3.10
2018-12-05T00:02:59.105Z,2.55
2018-12-05T00:05:28.437Z,2.80
2018-12-05T00:07:57.626Z,3.30
2018-12-05T00:10:26.863Z,3.27
2018-12-05T00:12:56.081Z,3.20
2018-12-05T00:15:25.249Z,3.30
2018-12-05T00:17:54.656Z,3.10
2018-12-05T00:20:23.754Z,3.42
2018-12-05T00:22:53.038Z,2.95
2018-12-05T00:25:22.551Z,2.93
2018-12-05T00:27:51.753Z,2.98
2018-12-05T00:30:20.997Z,3.15
2018-12-05T00:32:50.193Z,3.17
2018-12-05T00:35:19.522Z,2.95
2018-12-05T00:37:48.677Z,2.87
2018-12-05T00:40:18.059Z,3.08
2018-12-05T00:42:47.322Z,3.17
2018-12-05T00:45:16.429Z,3.50
2018-12-05T00:47:45.744Z,3.10
2018-12-05T00:50:15.085Z,3.17
2018-12-05T00:52:45.419Z,3.17
2018-12-05T00:55:14.731Z,3.20
2018-12-05T00:57:43.901Z,3.37
2018-12-05T01:00:13.434Z,3.30
2018-12-05T01:02:42.887Z,3.40
2018-12-05T01:05:12.267Z,3.20
2018-12-05T01:07:41.556Z,3.37
2018-12-05T01:10:10.865Z,3.67
2018-12-05T01:12:40.189Z,3.40
2018-12-05T01:15:09.782Z,3.10
2018-12-05T01:17:39.087Z,3.30
2018-12-05T01:20:08.538Z,3.30
2018-12-05T01:22:37.897Z,3.15
2018-12-05T01:25:07.306Z,3.30
2018-12-05T01:27:36.657Z,3.30
2018-12-05T01:30:06.079Z,3.20
2018-12-05T01:32:35.433Z,3.30
2018-12-05T01:35:04.849Z,3.25
2018-12-05T01:37:34.054Z,3.60
2018-12-05T01:40:03.353Z,3.50
2018-12-05T01:42:32.649Z,3.17
2018-12-05T01:45:01.977Z,3.37
2018-12-05T01:47:31.225Z,3.47
2018-12-05T01:50:00.529Z,3.70
2018-12-05T01:52:29.819Z,3.22
2018-12-05T01:54:58.972Z,3.10
2018-12-05T01:57:28.361Z,3.37
2018-12-05T01:59:57.757Z,3.60
2018-12-05T02:02:27.187Z,3.15
2018-12-05T02:04:56.488Z,3.20
2018-12-05T02:07:25.866Z,3.40
2018-12-05T02:09:55.416Z,3.30
2018-12-05T02:12:24.880Z,3.50
2018-12-05T02:14:54.146Z,3.47
2018-12-05T02:17:23.368Z,3.47
2018-12-05T02:19:52.576Z,3.47
2018-12-05T02:22:21.568Z,2.93
2018-12-05T02:24:50.793Z,3.30
2018-12-05T02:27:20.140Z,3.30
2018-12-05T02:29:54.215Z,3.30
2018-12-05T02:32:22.858Z,3.47
2018-12-05T02:34:51.409Z,3.17
2018-12-05T02:37:20.023Z,3.20
2018-12-05T02:39:48.615Z,3.30
2018-12-05T02:42:17.232Z,3.10
2018-12-05T02:44:45.915Z,3.08
2018-12-05T02:47:14.583Z,3.10
2018-12-05T02:49:43.143Z,3.50
2018-12-05T02:52:11.719Z,3.10
2018-12-05T02:54:40.296Z,3.00
2018-12-05T02:57:09.009Z,3.20
2018-12-05T02:59:37.583Z,3.05
2018-12-05T03:02:06.212Z,3.00
2018-12-05T03:04:34.806Z,3.00
2018-12-05T03:07:03.410Z,3.37
2018-12-05T03:09:32.262Z,3.65
2018-12-05T03:12:00.859Z,3.80
2018-12-05T03:14:29.535Z,3.45
2018-12-05T03:16:58.132Z,3.22
2018-12-05T03:19:26.668Z,3.70
2018-12-05T03:21:55.273Z,3.62
2018-12-05T03:24:23.890Z,3.90
2018-12-05T03:26:52.631Z,3.58
2018-12-05T03:29:21.251Z,3.47
2018-12-05T03:31:49.893Z,3.33
2018-12-05T03:34:18.474Z,3.10
2018-12-05T03:36:47.091Z,3.35
2018-12-05T03:39:15.730Z,3.25
2018-12-05T03:41:44.343Z,3.80
2018-12-05T03:44:13.077Z,3.70
2018-12-05T03:46:41.601Z,3.60
2018-12-05T03:49:10.188Z,3.77
2018-12-05T03:51:38.770Z,3.90
2018-12-05T03:54:07.370Z,3.62
2018-12-05T03:56:36.035Z,3.98
2018-12-05T03:59:04.615Z,3.90
2018-12-05T04:01:34.834Z,4.00
2018-12-05T04:04:03.716Z,3.80
2018-12-05T04:06:32.330Z,4.10
2018-12-05T04:09:00.969Z,3.90
2018-12-05T04:11:29.554Z,3.93
2018-12-05T04:13:58.197Z,4.20
2018-12-05T04:16:26.822Z,3.92
2018-12-05T04:18:55.417Z,3.77
2018-12-05T04:21:24.053Z,3.85
2018-12-05T04:23:52.674Z,3.58
2018-12-05T04:26:21.240Z,3.67
2018-12-05T04:28:49.853Z,3.72
2018-12-05T04:31:18.458Z,3.42
2018-12-05T04:33:47.051Z,3.37
2018-12-05T04:36:15.657Z,3.35
2018-12-05T04:38:44.234Z,3.30
2018-12-05T04:41:12.847Z,3.87
2018-12-05T04:43:41.388Z,3.40
2018-12-05T04:46:10.036Z,3.35
2018-12-05T04:48:38.621Z,3.17
2018-12-05T04:51:07.256Z,3.20
2018-12-05T04:53:35.928Z,3.40
2018-12-05T04:56:04.586Z,3.35
2018-12-05T04:58:33.193Z,3.50
2018-12-05T05:01:01.864Z,3.70
2018-12-05T05:03:30.484Z,4.03
2018-12-05T05:05:59.140Z,4.22
2018-12-05T05:08:27.724Z,3.50
2018-12-05T05:10:58.806Z,3.40
2018-12-05T05:13:27.436Z,3.70
2018-12-05T05:15:56.036Z,3.57
2018-12-05T05:18:24.690Z,4.00
2018-12-05T05:20:53.305Z,3.90
2018-12-05T05:23:22.001Z,4.00
2018-12-05T05:25:50.693Z,4.25
2018-12-05T05:28:19.264Z,4.17
2018-12-05T05:30:47.917Z,3.85
2018-12-05T05:33:16.571Z,4.03
2018-12-05T05:35:46.677Z,4.20
2018-12-05T05:38:15.318Z,4.00
2018-12-05T05:40:44.040Z,4.12
2018-12-05T05:43:12.728Z,4.13
2018-12-05T05:45:41.435Z,4.47
2018-12-05T05:48:10.193Z,4.45
2018-12-05T05:50:38.810Z,4.25
2018-12-05T05:53:07.477Z,4.30
2018-12-05T05:55:36.113Z,4.53
2018-12-05T05:58:05.066Z,4.47
2018-12-05T06:00:33.647Z,4.37
2018-12-05T06:03:02.325Z,4.60
2018-12-05T06:05:30.963Z,4.50
2018-12-05T06:07:59.566Z,4.40
2018-12-05T06:10:28.237Z,4.40
2018-12-05T06:12:56.822Z,4.60
2018-12-05T06:15:25.529Z,4.90
2018-12-05T06:17:54.113Z,4.15
2018-12-05T06:20:22.782Z,4.60
2018-12-05T06:22:51.473Z,5.08
2018-12-05T06:25:20.227Z,4.70
2018-12-05T06:27:48.882Z,5.15
2018-12-05T06:30:17.469Z,4.97
2018-12-05T06:32:46.142Z,4.60
2018-12-05T06:35:14.726Z,5.10
2018-12-05T06:37:43.437Z,5.12
2018-12-05T06:40:12.076Z,5.00
2018-12-05T06:42:40.714Z,4.70
2018-12-05T06:45:09.464Z,5.05
2018-12-05T06:47:38.222Z,5.22
2018-12-05T06:50:08.031Z,4.30
2018-12-05T06:52:36.748Z,5.10
2018-12-05T06:55:06.332Z,4.75
2018-12-05T06:57:34.946Z,4.97
2018-12-05T07:00:03.894Z,5.20
2018-12-05T07:02:32.530Z,5.10
2018-12-05T07:05:01.281Z,6.03
2018-12-05T07:07:29.909Z,5.33
2018-12-05T07:09:58.570Z,5.42
2018-12-05T07:12:27.172Z,5.35
2018-12-05T07:14:55.828Z,5.35
2018-12-05T07:17:24.456Z,5.90
2018-12-05T07:19:53.098Z,5.47
2018-12-05T07:22:21.744Z,5.90
2018-12-05T07:24:50.466Z,5.40
2018-12-05T07:27:19.177Z,6.00
2018-12-05T07:29:47.866Z,5.47
2018-12-05T07:32:16.511Z,5.97
2018-12-05T07:34:45.104Z,5.90
2018-12-05T07:37:13.957Z,6.08
2018-12-05T07:39:42.580Z,6.25
2018-12-05T07:42:11.173Z,6.47
2018-12-05T07:44:39.803Z,6.37
2018-12-05T07:47:08.468Z,6.17
2018-12-05T07:49:37.148Z,6.20
2018-12-05T07:52:05.930Z,6.78
2018-12-05T07:54:34.611Z,6.12
2018-12-05T07:57:03.279Z,6.10
2018-12-05T07:59:31.935Z,5.97
2018-12-05T08:02:00.527Z,6.27
2018-12-05T08:04:29.255Z,6.55
2018-12-05T08:06:58.214Z,6.33
2018-12-05T08:09:26.841Z,6.50
2018-12-05T08:11:55.507Z,6.35
2018-12-05T08:14:24.189Z,6.87
2018-12-05T08:16:52.814Z,6.47
2018-12-05T08:19:21.467Z,6.42
2018-12-05T08:21:50.130Z,6.90
2018-12-05T08:24:18.736Z,6.97
2018-12-05T08:26:47.380Z,7.20
2018-12-05T08:29:15.864Z,6.47
2018-12-05T08:31:44.120Z,7.60
2018-12-05T08:34:12.552Z,7.17
2018-12-05T08:36:40.897Z,6.72
2018-12-05T08:39:09.933Z,7.53
2018-12-05T08:41:38.183Z,7.22
2018-12-05T08:44:08.229Z,7.22
2018-12-05T08:46:36.540Z,6.47
2018-12-05T08:49:04.921Z,7.40
2018-12-05T08:51:33.237Z,6.50
2018-12-05T08:54:01.563Z,7.65
2018-12-05T08:56:29.871Z,7.50
2018-12-05T08:58:58.130Z,7.25
2018-12-05T09:01:26.562Z,7.03
2018-12-05T09:03:54.871Z,6.22
2018-12-05T09:06:23.165Z,6.40
2018-12-05T09:08:51.531Z,6.10
2018-12-05T09:11:19.962Z,6.40
2018-12-05T09:13:48.221Z,5.90
2018-12-05T09:16:16.870Z,6.30
2018-12-05T09:18:46.186Z,6.17
2018-12-05T09:21:14.610Z,6.10
2018-12-05T09:23:42.943Z,5.95
2018-12-05T09:26:11.305Z,5.47
2018-12-05T09:28:39.566Z,6.33
2018-12-05T09:31:08.000Z,6.50
2018-12-05T09:33:36.451Z,5.90
2018-12-05T09:36:04.911Z,6.15
2018-12-05T09:38:33.208Z,6.33
2018-12-05T09:41:01.878Z,6.45
2018-12-05T09:43:30.665Z,6.35
2018-12-05T09:45:58.957Z,6.05
2018-12-05T09:48:27.206Z,6.17
2018-12-05T09:50:55.513Z,5.87
2018-12-05T09:53:23.805Z,6.15
2018-12-05T09:55:52.142Z,5.53
2018-12-05T09:58:20.387Z,5.22
2018-12-05T10:00:48.716Z,5.12
2018-12-05T10:03:17.000Z,5.65
2018-12-05T10:05:45.275Z,5.27
2018-12-05T10:08:13.586Z,5.15
2018-12-05T10:10:41.899Z,4.62
2018-12-05T10:13:10.245Z,4.83
2018-12-05T10:15:38.605Z,4.67
2018-12-05T10:18:06.926Z,4.20
2018-12-05T10:20:35.293Z,4.78
2018-12-05T10:23:03.678Z,4.80
2018-12-05T10:25:32.063Z,4.08
2018-12-05T10:28:00.309Z,4.37
2018-12-05T10:30:28.667Z,4.28
2018-12-05T10:32:56.922Z,4.67
2018-12-05T10:35:25.345Z,4.60
2018-12-05T10:37:54.518Z,3.90
2018-12-05T10:40:22.958Z,4.47
2018-12-05T10:42:51.306Z,4.25
2018-12-05T10:45:19.685Z,4.08
2018-12-05T10:47:47.907Z,4.42
2018-12-05T10:50:16.270Z,4.30
2018-12-05T10:52:44.684Z,4.35
2018-12-05T10:55:13.066Z,4.20
2018-12-05T10:57:41.306Z,4.58
2018-12-05T11:00:14.116Z,4.03
2018-12-05T11:02:48.829Z,4.22
2018-12-05T11:05:22.474Z,3.40
2018-12-05T11:07:56.266Z,3.83
2018-12-05T11:10:30.004Z,3.75
2018-12-05T11:13:03.688Z,3.80
2018-12-05T11:15:37.400Z,3.30
2018-12-05T11:18:11.181Z,3.67
2018-12-05T11:20:45.066Z,3.55
2018-12-05T11:23:21.430Z,3.47
2018-12-05T11:25:50.721Z,3.80
2018-12-05T11:28:19.085Z,3.50
2018-12-05T11:30:47.334Z,3.98
2018-12-05T11:33:15.804Z,3.50
2018-12-05T11:35:44.156Z,3.23
2018-12-05T11:38:12.612Z,3.02
2018-12-05T11:40:40.955Z,3.10
2018-12-05T11:43:09.452Z,2.80
2018-12-05T11:45:37.742Z,2.77
2018-12-05T11:48:06.109Z,3.15
2018-12-05T11:50:34.448Z,3.10
2018-12-05T11:53:02.747Z,3.52
2018-12-05T11:55:30.923Z,3.05
2018-12-05T11:57:59.306Z,3.20
2018-12-05T12:00:27.608Z,2.98
2018-12-05T12:02:56.090Z,2.80
2018-12-05T12:05:24.845Z,3.10
2018-12-05T12:07:53.323Z,3.00
2018-12-05T12:10:25.999Z,2.70
2018-12-05T12:12:59.785Z,2.30
2018-12-05T12:15:28.157Z,2.40
2018-12-05T12:17:56.641Z,3.17
2018-12-05T12:20:25.091Z,2.33
2018-12-05T12:22:53.418Z,2.40
2018-12-05T12:25:21.768Z,2.63
2018-12-05T12:27:50.134Z,2.70
2018-12-05T12:30:18.364Z,2.50
2018-12-05T12:32:46.660Z,2.40
2018-12-05T12:35:15.254Z,2.27
2018-12-05T12:37:43.726Z,2.70
2018-12-05T12:40:12.140Z,2.30
2018-12-05T12:42:40.470Z,2.52
2018-12-05T12:45:08.827Z,2.25
2018-12-05T12:47:37.096Z,2.22
2018-12-05T12:50:06.088Z,2.33
2018-12-05T12:52:34.336Z,2.47
2018-12-05T12:55:02.667Z,2.40
2018-12-05T12:57:30.987Z,2.45
2018-12-05T12:59:59.293Z,2.08
2018-12-05T13:02:28.117Z,2.02
2018-12-05T13:04:56.420Z,2.00
2018-12-05T13:07:24.663Z,2.33
2018-12-05T13:09:53.021Z,2.30
2018-12-05T13:12:29.319Z,2.05
2018-12-05T13:14:57.697Z,2.05
2018-12-05T13:17:26.273Z,2.52
2018-12-05T13:19:54.820Z,2.80
2018-12-05T13:22:23.102Z,2.10
2018-12-05T13:24:51.744Z,2.65
2018-12-05T13:27:20.122Z,2.10
2018-12-05T13:29:48.421Z,2.72
2018-12-05T13:32:16.614Z,2.55
2018-12-05T13:34:44.903Z,2.45
2018-12-05T13:37:13.220Z,2.35
2018-12-05T13:39:41.659Z,2.77
2018-12-05T13:42:10.069Z,3.30
2018-12-05T13:44:38.387Z,2.97
2018-12-05T13:47:06.695Z,2.60
2018-12-05T13:49:35.128Z,2.87
2018-12-05T13:52:03.517Z,3.03
2018-12-05T13:54:31.828Z,2.95
2018-12-05T13:57:00.112Z,3.10
2018-12-05T13:59:28.321Z,3.00
2018-12-05T14:01:57.343Z,3.33
2018-12-05T14:04:26.534Z,2.90
2018-12-05T14:06:54.836Z,3.30
2018-12-05T14:09:23.132Z,3.23
2018-12-05T14:11:51.651Z,2.85
2018-12-05T14:14:19.909Z,3.17
2018-12-05T14:16:48.279Z,3.37
2018-12-05T14:19:16.605Z,3.58
2018-12-05T14:21:44.945Z,3.05
2018-12-05T14:24:13.211Z,3.10
2018-12-05T14:26:41.551Z,3.22
2018-12-05T14:29:09.777Z,3.30
2018-12-05T14:31:39.176Z,3.10
2018-12-05T14:34:07.473Z,3.73
2018-12-05T14:36:35.979Z,3.55
2018-12-05T14:39:06.268Z,3.40
2018-12-05T14:41:34.776Z,3.30
2018-12-05T14:44:03.202Z,3.20
2018-12-05T14:46:31.545Z,3.17
2018-12-05T14:48:59.853Z,3.90
2018-12-05T14:51:28.174Z,3.55
2018-12-05T14:53:56.461Z,3.27
2018-12-05T14:56:24.743Z,4.03
2018-12-05T14:58:53.044Z,3.80
2018-12-05T15:01:21.789Z,3.72
2018-12-05T15:03:51.779Z,3.47
2018-12-05T15:06:20.257Z,3.45
2018-12-05T15:08:48.657Z,3.40
2018-12-05T15:11:17.025Z,3.60
2018-12-05T15:13:45.322Z,3.13
2018-12-05T15:16:13.670Z,3.52
2018-12-05T15:18:41.916Z,3.15
2018-12-05T15:21:10.243Z,3.45
2018-12-05T15:23:38.582Z,3.87
2018-12-05T15:26:07.009Z,3.80
2018-12-05T15:28:35.400Z,4.03
2018-12-05T15:31:03.778Z,3.40
2018-12-05T15:33:32.115Z,3.90
2018-12-05T15:36:00.546Z,3.52
2018-12-05T15:38:28.953Z,3.40
2018-12-05T15:40:57.315Z,3.70
2018-12-05T15:43:25.598Z,3.60
2018-12-05T15:45:53.920Z,3.77
2018-12-05T15:48:22.188Z,3.20
2018-12-05T15:50:50.560Z,3.55
2018-12-05T15:53:18.951Z,3.20
2018-12-05T15:55:47.314Z,3.37
2018-12-05T15:58:15.675Z,3.60
2018-12-05T16:00:44.047Z,3.05
2018-12-05T16:03:12.325Z,3.58
2018-12-05T16:05:40.699Z,3.50
2018-12-05T16:08:08.945Z,3.50
2018-12-05T16:10:37.281Z,3.20
2018-12-05T16:13:05.669Z,3.45
2018-12-05T16:15:34.065Z,3.65
2018-12-05T16:18:02.591Z,4.15
2018-12-05T16:20:30.848Z,4.20
2018-12-05T16:22:59.185Z,4.60
2018-12-05T16:25:27.681Z,3.70
2018-12-05T16:27:55.936Z,4.25
2018-12-05T16:30:24.414Z,4.30
2018-12-05T16:32:52.840Z,4.35
2018-12-05T16:35:22.123Z,4.30
2018-12-05T16:37:51.558Z,4.50
2018-12-05T16:40:20.062Z,4.58
2018-12-05T16:42:49.368Z,5.65
2018-12-05T16:45:17.741Z,4.83
2018-12-05T16:47:46.081Z,4.58
2018-12-05T16:50:14.506Z,4.30
2018-12-05T16:52:42.891Z,4.25
2018-12-05T16:55:11.216Z,4.25
2018-12-05T16:57:39.618Z,4.90
2018-12-05T17:00:10.068Z,4.83
2018-12-05T17:02:38.528Z,4.62
2018-12-05T17:05:07.145Z,5.17
2018-12-05T17:07:35.495Z,4.50
2018-12-05T17:10:03.945Z,4.80
2018-12-05T17:12:32.342Z,4.92
2018-12-05T17:15:00.657Z,4.78
2018-12-05T17:17:28.957Z,4.58
2018-12-05T17:19:57.235Z,5.05
2018-12-05T17:22:25.503Z,5.20
2018-12-05T17:24:55.471Z,5.13
2018-12-05T17:27:24.175Z,5.17
2018-12-05T17:29:52.488Z,5.13
2018-12-05T17:32:20.865Z,4.92
2018-12-05T17:34:49.115Z,5.50
2018-12-05T17:37:17.488Z,5.30
2018-12-05T17:39:45.739Z,5.20
2018-12-05T17:42:14.104Z,5.05
2018-12-05T17:44:42.373Z,5.17
2018-12-05T17:47:10.655Z,5.20
2018-12-05T17:49:38.897Z,5.25
2018-12-05T17:52:10.284Z,5.12
2018-12-05T17:54:38.574Z,5.20
2018-12-05T17:57:06.877Z,4.80
2018-12-05T17:59:35.314Z,4.95
2018-12-05T18:02:03.674Z,4.85
2018-12-05T18:04:31.928Z,4.92
2018-12-05T18:07:00.273Z,5.30
2018-12-05T18:09:28.545Z,4.83
2018-12-05T18:11:56.945Z,4.90
2018-12-05T18:14:26.070Z,5.17
2018-12-05T18:16:54.446Z,5.30
2018-12-05T18:19:22.735Z,5.12
2018-12-05T18:21:50.994Z,5.65
2018-12-05T18:24:19.345Z,5.70
2018-12-05T18:26:47.588Z,5.33
2018-12-05T18:29:15.924Z,5.35
2018-12-05T18:31:44.225Z,5.15
2018-12-05T18:34:12.883Z,5.40
2018-12-05T18:36:41.388Z,5.47
2018-12-05T18:39:09.772Z,5.70
2018-12-05T18:41:38.133Z,5.85
2018-12-05T18:44:06.512Z,5.17
2018-12-05T18:46:36.263Z,5.78
2018-12-05T18:49:04.634Z,5.67
2018-12-05T18:51:32.946Z,5.22
2018-12-05T18:54:01.272Z,5.60
2018-12-05T18:56:29.587Z,5.12
2018-12-05T18:58:57.811Z,5.15
2018-12-05T19:01:26.155Z,5.20
2018-12-05T19:03:54.363Z,4.83
2018-12-05T19:06:22.717Z,5.00
2018-12-05T19:08:51.039Z,5.00
2018-12-05T19:11:19.380Z,4.80
2018-12-05T19:13:53.040Z,4.83
2018-12-05T19:16:21.312Z,5.30
2018-12-05T19:18:49.542Z,4.85
2018-12-05T19:21:17.907Z,4.95
2018-12-05T19:23:47.178Z,5.47
2018-12-05T19:26:15.885Z,4.80
2018-12-05T19:28:44.126Z,4.92
2018-12-05T19:31:19.242Z,4.83
2018-12-05T19:33:42.668Z,5.25
2018-12-05T19:36:10.871Z,5.25
2018-12-05T19:38:39.162Z,5.12
2018-12-05T19:41:07.405Z,4.90
2018-12-05T19:43:36.845Z,4.83
2018-12-05T19:46:05.182Z,4.58
2018-12-05T19:48:33.586Z,5.03
2018-12-05T19:51:02.804Z,4.80
2018-12-05T19:53:31.066Z,5.28
2018-12-05T19:55:59.380Z,4.75
2018-12-05T19:58:27.730Z,4.80
2018-12-05T20:00:56.061Z,4.60
2018-12-05T20:03:24.338Z,4.58
2018-12-05T20:05:52.547Z,4.60
2018-12-05T20:08:20.883Z,4.50
2018-12-05T20:10:49.127Z,4.70
2018-12-05T20:13:17.444Z,4.90
2018-12-05T20:15:45.818Z,4.70
2018-12-05T20:18:14.255Z,5.08
2018-12-05T20:20:44.155Z,4.78
2018-12-05T20:23:12.467Z,4.80
2018-12-05T20:25:40.706Z,4.65
2018-12-05T20:28:08.951Z,4.65
2018-12-05T20:30:37.213Z,4.83
2018-12-05T20:33:05.615Z,4.72
2018-12-05T20:35:33.939Z,4.72
2018-12-05T20:38:02.257Z,4.53
2018-12-05T20:40:30.632Z,4.80
2018-12-05T20:42:59.056Z,4.53
2018-12-05T20:45:27.397Z,4.43
2018-12-05T20:47:55.734Z,4.55
2018-12-05T20:50:23.999Z,4.70
2018-12-05T20:52:53.878Z,4.62
2018-12-05T20:55:22.137Z,4.83
2018-12-05T20:57:50.673Z,4.50
2018-12-05T21:00:19.025Z,4.90
2018-12-05T21:02:47.362Z,4.83
2018-12-05T21:05:15.746Z,4.70
2018-12-05T21:07:44.039Z,4.83
2018-12-05T21:10:12.306Z,4.80
2018-12-05T21:12:40.660Z,5.33
2018-12-05T21:15:09.067Z,4.33
2018-12-05T21:17:37.442Z,4.97
2018-12-05T21:20:05.816Z,5.53
2018-12-05T21:22:34.091Z,4.92
2018-12-05T21:25:04.117Z,5.00
2018-12-05T21:27:32.488Z,4.95
2018-12-05T21:30:00.838Z,4.83
2018-12-05T21:32:29.234Z,5.15
2018-12-05T21:34:57.529Z,4.87
2018-12-05T21:37:25.902Z,5.03
2018-12-05T21:39:54.094Z,4.92
2018-12-05T21:42:22.331Z,5.30
2018-12-05T21:44:50.595Z,5.08
2018-12-05T21:47:18.911Z,5.20
2018-12-05T21:49:47.216Z,5.17
2018-12-05T21:52:15.543Z,5.28
2018-12-05T21:54:43.826Z,5.00
2018-12-05T21:57:13.319Z,5.35
2018-12-05T21:59:41.579Z,5.37
2018-12-05T22:02:09.800Z,4.85
2018-12-05T22:04:38.343Z,4.90
2018-12-05T22:07:06.725Z,4.83
2018-12-05T22:09:34.987Z,4.67
2018-12-05T22:12:03.280Z,4.85
2018-12-05T22:14:31.504Z,5.17
2018-12-05T22:17:00.080Z,4.83
2018-12-05T22:19:28.445Z,4.70
2018-12-05T22:21:56.675Z,4.60
2018-12-05T22:24:24.927Z,4.92
2018-12-05T22:26:53.120Z,4.85
2018-12-05T22:29:22.215Z,5.10
2018-12-05T22:31:50.527Z,4.97
2018-12-05T22:34:18.804Z,5.05
2018-12-05T22:36:47.092Z,5.15
2018-12-05T22:39:15.327Z,4.90
2018-12-05T22:41:43.630Z,5.20
2018-12-05T22:44:11.887Z,4.90
2018-12-05T22:46:40.280Z,5.12
2018-12-05T22:49:08.641Z,5.30
2018-12-05T22:51:36.900Z,5.15
2018-12-05T22:54:05.206Z,5.80
2018-12-05T22:56:33.549Z,4.58
2018-12-05T22:59:01.824Z,4.72
2018-12-05T23:01:30.154Z,4.75
2018-12-05T23:03:58.457Z,4.80
2018-12-05T23:06:26.700Z,4.58
2018-12-05T23:08:54.976Z,4.90
2018-12-05T23:11:23.201Z,4.97
2018-12-05T23:13:51.476Z,4.67
2018-12-05T23:16:19.884Z,5.17
2018-12-05T23:18:48.204Z,4.92
2018-12-05T23:21:16.570Z,4.83
2018-12-05T23:23:44.998Z,5.30
2018-12-05T23:26:13.296Z,5.17
2018-12-05T23:28:41.595Z,5.00
2018-12-05T23:31:09.977Z,5.15
2018-12-05T23:33:38.278Z,5.08
2018-12-05T23:36:06.761Z,4.83
2018-12-05T23:38:35.199Z,4.80
2018-12-05T23:41:03.707Z,4.90
2018-12-05T23:43:32.122Z,5.65
2018-12-05T23:46:00.608Z,5.37
2018-12-05T23:48:28.901Z,5.30
2018-12-05T23:50:57.226Z,5.07
2018-12-05T23:53:25.497Z,5.20
2018-12-05T23:55:53.910Z,5.10
2018-12-05T23:58:22.262Z,5.53
